createdAt,value
2022-08-26T00:02:12.825Z,100.00
2022-08-26T00:04:45.702Z,100.00
2022-08-26T00:07:14.638Z,100.00
2022-08-26T00:09:43.031Z,100.00
2022-08-26T00:12:20.850Z,100.00
2022-08-26T00:15:02.699Z,100.00
2022-08-26T00:17:30.986Z,100.00
2022-08-26T00:19:59.419Z,100.00
2022-08-26T00:22:37.314Z,100.00
2022-08-26T00:25:08.115Z,100.00
2022-08-26T00:27:37.440Z,100.00
2022-08-26T00:30:17.367Z,100.00
2022-08-26T00:32:51.605Z,100.00
2022-08-26T00:35:28.053Z,100.00
2022-08-26T00:38:00.760Z,100.00
2022-08-26T00:40:37.570Z,100.00
2022-08-26T00:43:17.878Z,100.00
2022-08-26T00:45:57.436Z,100.00
2022-08-26T00:48:45.217Z,100.00
2022-08-26T00:51:20.380Z,100.00
2022-08-26T00:53:52.718Z,100.00
2022-08-26T00:56:40.889Z,100.00
2022-08-26T00:59:13.399Z,100.00
2022-08-26T01:01:44.134Z,100.00
2022-08-26T01:04:26.020Z,100.00
2022-08-26T01:08:03.608Z,100.00
2022-08-26T01:10:32.191Z,100.00
2022-08-26T01:13:07.293Z,100.00
2022-08-26T01:15:45.056Z,100.00
2022-08-26T01:18:14.925Z,100.00
2022-08-26T01:21:20.782Z,100.00
2022-08-26T01:23:57.292Z,100.00
2022-08-26T01:26:38.196Z,100.00
2022-08-26T01:29:07.226Z,100.00
2022-08-26T01:34:35.169Z,100.00
2022-08-26T01:37:22.304Z,100.00
2022-08-26T01:40:00.739Z,100.00
2022-08-26T01:42:30.028Z,100.00
2022-08-26T01:45:06.072Z,100.00
2022-08-26T01:47:36.963Z,100.00
2022-08-26T01:50:28.046Z,100.00
2022-08-26T01:53:11.906Z,100.00
2022-08-26T01:56:06.093Z,100.00
2022-08-26T01:58:51.991Z,100.00
2022-08-26T02:01:24.216Z,100.00
2022-08-26T02:04:40.101Z,100.00
2022-08-26T02:07:10.123Z,100.00
2022-08-26T02:09:41.265Z,100.00
2022-08-26T02:12:17.471Z,100.00
2022-08-26T02:14:52.305Z,100.00
2022-08-26T02:17:44.223Z,100.00
2022-08-26T02:20:18.091Z,100.00
2022-08-26T02:22:48.569Z,100.00
2022-08-26T02:25:56.458Z,100.00
2022-08-26T02:28:31.495Z,100.00
2022-08-26T02:31:06.592Z,100.00
2022-08-26T02:33:37.500Z,100.00
2022-08-26T02:36:13.524Z,100.00
2022-08-26T02:38:47.747Z,100.00
2022-08-26T02:41:34.695Z,100.00
2022-08-26T02:44:22.646Z,100.00
2022-08-26T02:46:54.204Z,100.00
2022-08-26T02:52:12.903Z,100.00
2022-08-26T02:55:01.849Z,100.00
2022-08-26T02:57:38.767Z,100.00
2022-08-26T03:00:12.689Z,100.00
2022-08-26T03:02:43.761Z,100.00
2022-08-26T03:05:44.800Z,100.00
2022-08-26T03:08:23.331Z,100.00
2022-08-26T03:13:44.418Z,100.00
2022-08-26T03:16:23.639Z,100.00
2022-08-26T03:18:54.381Z,100.00
2022-08-26T03:24:47.425Z,100.00
2022-08-26T03:27:16.803Z,100.00
2022-08-26T03:30:04.659Z,100.00
2022-08-26T03:32:35.881Z,100.00
2022-08-26T03:35:10.138Z,100.00
2022-08-26T03:37:41.624Z,100.00
2022-08-26T03:40:21.122Z,100.00
2022-08-26T03:42:53.973Z,100.00
2022-08-26T03:45:22.578Z,100.00
2022-08-26T03:47:53.594Z,100.00
2022-08-26T03:50:38.697Z,100.00
2022-08-26T03:53:14.409Z,100.00
2022-08-26T03:55:46.192Z,100.00
2022-08-26T03:58:15.125Z,100.00
2022-08-26T04:00:43.566Z,100.00
2022-08-26T04:03:18.608Z,100.00
2022-08-26T04:05:54.528Z,100.00
2022-08-26T04:08:25.162Z,100.00
2022-08-26T04:11:00.821Z,100.00
2022-08-26T04:13:31.184Z,100.00
2022-08-26T04:16:01.121Z,100.00
2022-08-26T04:18:37.080Z,100.00
2022-08-26T04:21:10.296Z,100.00
2022-08-26T04:24:03.588Z,100.00
2022-08-26T04:26:39.471Z,100.00
2022-08-26T04:29:25.853Z,100.00
2022-08-26T04:31:56.022Z,100.00
2022-08-26T04:34:29.340Z,100.00
2022-08-26T04:36:58.544Z,100.00
2022-08-26T04:39:41.180Z,100.00
2022-08-26T04:42:14.255Z,100.00
2022-08-26T04:44:48.412Z,100.00
2022-08-26T04:47:19.816Z,100.00
2022-08-26T04:49:56.634Z,100.00
2022-08-26T04:52:33.155Z,100.00
2022-08-26T04:55:02.244Z,100.00
2022-08-26T04:57:43.022Z,100.00
2022-08-26T05:00:28.801Z,100.00
2022-08-26T05:02:57.921Z,100.00
2022-08-26T05:05:29.406Z,100.00
2022-08-26T05:07:57.855Z,100.00
2022-08-26T05:10:26.148Z,100.00
2022-08-26T05:12:55.260Z,100.00
2022-08-26T05:15:24.758Z,100.00
2022-08-26T05:17:53.899Z,100.00
2022-08-26T05:20:25.676Z,100.00
2022-08-26T05:22:54.620Z,100.00
2022-08-26T05:25:24.179Z,100.00
2022-08-26T05:27:55.676Z,100.00
2022-08-26T05:30:24.406Z,100.00
2022-08-26T05:32:55.365Z,100.00
2022-08-26T05:35:23.872Z,100.00
2022-08-26T05:37:52.350Z,100.00
2022-08-26T05:40:21.416Z,100.00
2022-08-26T05:42:50.123Z,100.00
2022-08-26T05:45:18.692Z,100.00
2022-08-26T05:47:50.392Z,100.00
2022-08-26T05:50:25.616Z,100.00
2022-08-26T05:52:54.283Z,100.00
2022-08-26T05:55:23.503Z,100.00
2022-08-26T05:57:52.580Z,100.00
2022-08-26T06:00:21.983Z,100.00
2022-08-26T06:02:50.837Z,100.00
2022-08-26T06:05:21.693Z,100.00
2022-08-26T06:08:09.029Z,100.00
2022-08-26T06:10:54.308Z,100.00
2022-08-26T06:13:27.486Z,100.00
2022-08-26T06:16:04.939Z,100.00
2022-08-26T06:18:36.932Z,100.00
2022-08-26T06:21:19.967Z,100.00
2022-08-26T06:24:09.897Z,100.00
2022-08-26T06:26:38.181Z,100.00
2022-08-26T06:29:07.531Z,100.00
2022-08-26T06:31:37.335Z,100.00
2022-08-26T06:34:10.881Z,98.95
2022-08-26T06:36:43.842Z,98.04
2022-08-26T06:39:15.214Z,99.74
2022-08-26T06:41:45.237Z,98.37
2022-08-26T06:44:19.481Z,96.00
2022-08-26T06:46:50.531Z,94.75
2022-08-26T06:49:25.833Z,91.16
2022-08-26T06:51:59.018Z,91.75
2022-08-26T06:54:31.873Z,90.22
2022-08-26T06:57:01.288Z,88.07
2022-08-26T06:59:31.547Z,85.28
2022-08-26T07:02:00.266Z,85.86
2022-08-26T07:04:30.587Z,84.69
2022-08-26T07:06:59.298Z,82.51
2022-08-26T07:09:32.601Z,77.86
2022-08-26T07:12:01.932Z,75.74
2022-08-26T07:14:31.829Z,77.42
2022-08-26T07:17:02.766Z,79.22
2022-08-26T07:19:31.898Z,78.61
2022-08-26T07:22:05.228Z,79.13
2022-08-26T07:24:36.479Z,80.38
2022-08-26T07:27:10.608Z,80.40
2022-08-26T07:29:40.718Z,80.96
2022-08-26T07:32:10.351Z,81.66
2022-08-26T07:34:39.542Z,80.71
2022-08-26T07:37:10.298Z,79.84
2022-08-26T07:39:43.152Z,78.64
2022-08-26T07:42:14.424Z,77.05
2022-08-26T07:44:43.881Z,76.90
2022-08-26T07:47:24.694Z,76.23
2022-08-26T07:49:56.642Z,71.01
2022-08-26T07:52:30.008Z,71.93
2022-08-26T07:55:00.070Z,73.62
2022-08-26T07:57:29.565Z,71.68
2022-08-26T07:59:59.173Z,71.96
2022-08-26T08:02:29.951Z,67.00
2022-08-26T08:04:59.601Z,65.15
2022-08-26T08:07:44.190Z,64.71
2022-08-26T08:10:18.718Z,62.67
2022-08-26T08:12:57.778Z,62.63
2022-08-26T08:15:33.727Z,61.38
2022-08-26T08:18:07.376Z,60.26
2022-08-26T08:21:04.846Z,60.64
2022-08-26T08:23:34.802Z,56.64
2022-08-26T08:26:13.426Z,55.44
2022-08-26T08:28:48.190Z,52.70
2022-08-26T08:31:55.808Z,51.22
2022-08-26T08:34:16.189Z,51.71
2022-08-26T08:36:49.929Z,50.40
2022-08-26T08:39:23.516Z,51.33
2022-08-26T08:42:32.535Z,49.83
2022-08-26T08:45:10.684Z,47.37
2022-08-26T08:47:49.626Z,48.67
2022-08-26T08:50:38.884Z,47.65
2022-08-26T08:53:36.906Z,48.97
2022-08-26T08:56:13.719Z,49.08
2022-08-26T08:59:19.141Z,48.02
2022-08-26T09:01:54.172Z,49.78
2022-08-26T09:07:37.530Z,50.79
2022-08-26T09:10:40.946Z,50.53
2022-08-26T09:13:25.117Z,50.82
2022-08-26T09:19:30.504Z,48.01
2022-08-26T09:22:04.683Z,48.68
2022-08-26T09:24:41.776Z,48.01
2022-08-26T09:27:40.337Z,44.70
2022-08-26T09:30:11.373Z,45.85
2022-08-26T09:32:55.921Z,46.65
2022-08-26T09:35:31.795Z,44.58
2022-08-26T09:38:00.693Z,42.24
2022-08-26T09:40:34.526Z,42.93
2022-08-26T09:43:22.720Z,41.09
2022-08-26T09:45:59.077Z,41.09
2022-08-26T09:48:40.691Z,40.40
2022-08-26T09:51:23.246Z,38.87
2022-08-26T09:53:59.060Z,38.65
2022-08-26T09:56:39.359Z,38.91
2022-08-26T09:59:12.199Z,39.57
2022-08-26T10:01:50.009Z,38.40
2022-08-26T10:04:38.699Z,38.94
2022-08-26T10:07:09.605Z,38.72
2022-08-26T10:09:43.226Z,38.21
2022-08-26T10:12:21.955Z,37.67
2022-08-26T10:14:56.535Z,36.52
2022-08-26T10:17:36.750Z,37.05
2022-08-26T10:20:22.654Z,36.01
2022-08-26T10:23:02.976Z,36.21
2022-08-26T10:25:52.727Z,36.60
2022-08-26T10:28:27.073Z,36.38
2022-08-26T10:31:38.200Z,36.13
2022-08-26T10:34:18.530Z,35.52
2022-08-26T10:37:13.937Z,35.70
2022-08-26T10:39:59.245Z,35.04
2022-08-26T10:42:37.610Z,35.47
2022-08-26T10:45:22.380Z,35.27
2022-08-26T10:48:00.625Z,34.65
2022-08-26T10:50:37.347Z,34.98
2022-08-26T10:53:17.836Z,35.56
2022-08-26T10:56:06.259Z,33.40
2022-08-26T10:59:12.661Z,34.18
2022-08-26T11:02:12.994Z,35.16
2022-08-26T11:05:03.360Z,35.59
2022-08-26T11:07:46.476Z,35.01
2022-08-26T11:10:20.840Z,34.71
2022-08-26T11:13:07.250Z,34.11
2022-08-26T11:15:38.901Z,31.93
2022-08-26T11:18:13.649Z,30.55
2022-08-26T11:20:45.246Z,32.14
2022-08-26T11:23:16.992Z,33.42
2022-08-26T11:26:11.017Z,32.93
2022-08-26T11:28:44.846Z,34.17
2022-08-26T11:31:38.733Z,34.44
2022-08-26T11:34:21.212Z,33.11
2022-08-26T11:36:57.021Z,33.89
2022-08-26T11:39:54.456Z,32.88
2022-08-26T11:42:41.715Z,33.09
2022-08-26T11:45:22.887Z,31.98
2022-08-26T11:47:52.764Z,32.49
2022-08-26T11:50:26.252Z,32.10
2022-08-26T11:53:04.637Z,30.72
2022-08-26T11:55:41.991Z,30.58
2022-08-26T11:58:12.691Z,31.14
2022-08-26T12:00:58.151Z,31.16
2022-08-26T12:03:54.041Z,31.57
2022-08-26T12:06:30.818Z,31.77
2022-08-26T12:09:02.771Z,31.24
2022-08-26T12:11:39.255Z,31.06
2022-08-26T12:14:20.827Z,29.91
2022-08-26T12:16:49.342Z,28.70
2022-08-26T12:19:33.931Z,28.23
2022-08-26T12:22:07.102Z,29.61
2022-08-26T12:24:44.358Z,29.29
2022-08-26T12:27:25.338Z,28.20
2022-08-26T12:30:08.439Z,24.65
2022-08-26T12:32:55.138Z,24.24
2022-08-26T12:35:29.518Z,23.39
2022-08-26T12:37:58.922Z,23.38
2022-08-26T12:40:46.351Z,22.49
2022-08-26T12:43:48.039Z,21.45
2022-08-26T12:46:27.239Z,21.58
2022-08-26T12:49:05.163Z,21.15
2022-08-26T12:51:35.655Z,20.74
2022-08-26T12:54:43.410Z,21.21
2022-08-26T13:00:16.166Z,20.17
2022-08-26T13:02:52.768Z,19.70
2022-08-26T13:05:22.980Z,19.13
2022-08-26T13:08:15.712Z,17.98
2022-08-26T13:10:46.486Z,18.46
2022-08-26T13:13:38.690Z,18.21
2022-08-26T13:18:53.694Z,19.13
2022-08-26T13:21:27.681Z,19.15
2022-08-26T13:23:59.253Z,18.13
2022-08-26T13:26:29.297Z,18.46
2022-08-26T13:29:10.534Z,18.31
2022-08-26T13:34:31.612Z,17.28
2022-08-26T13:37:00.588Z,17.15
2022-08-26T13:39:29.774Z,16.89
2022-08-26T13:42:08.260Z,16.02
2022-08-26T13:44:55.607Z,16.37
2022-08-26T13:47:27.746Z,17.01
2022-08-26T13:52:42.287Z,15.86
2022-08-26T13:55:25.144Z,15.29
2022-08-26T13:57:55.381Z,14.92
2022-08-26T14:00:36.230Z,14.91
2022-08-26T14:03:12.600Z,15.92
2022-08-26T14:05:44.097Z,15.11
2022-08-26T14:08:12.254Z,15.00
2022-08-26T14:13:27.218Z,15.14
2022-08-26T14:15:58.860Z,15.38
2022-08-26T14:18:38.493Z,15.85
2022-08-26T14:21:12.538Z,15.60
2022-08-26T14:23:42.715Z,15.14
2022-08-26T14:26:14.368Z,14.77
2022-08-26T14:28:59.750Z,14.46
2022-08-26T14:31:57.315Z,14.76
2022-08-26T14:34:42.983Z,14.85
2022-08-26T14:42:58.799Z,14.46
2022-08-26T14:45:30.643Z,14.72
2022-08-26T14:48:03.003Z,14.61
2022-08-26T14:50:38.896Z,14.83
2022-08-26T14:53:25.478Z,14.95
2022-08-26T14:55:53.950Z,15.31
2022-08-26T14:58:34.898Z,15.42
2022-08-26T15:01:12.628Z,14.91
2022-08-26T15:03:41.089Z,15.15
2022-08-26T15:06:10.449Z,15.11
2022-08-26T15:08:40.220Z,15.01
2022-08-26T15:11:31.039Z,14.86
2022-08-26T15:14:05.353Z,14.47
2022-08-26T15:16:34.187Z,14.18
2022-08-26T15:19:07.008Z,14.30
2022-08-26T15:21:36.103Z,14.51
2022-08-26T15:24:04.901Z,15.01
2022-08-26T15:26:35.213Z,14.62
2022-08-26T15:29:05.238Z,14.68
2022-08-26T15:31:33.710Z,14.67
2022-08-26T15:34:22.478Z,14.70
2022-08-26T15:36:50.706Z,14.77
2022-08-26T15:39:19.979Z,14.95
2022-08-26T15:41:50.420Z,14.90
2022-08-26T15:44:19.311Z,15.45
2022-08-26T15:46:48.154Z,15.68
2022-08-26T15:49:17.749Z,15.30
2022-08-26T15:51:49.365Z,15.23
2022-08-26T15:54:19.766Z,15.13
2022-08-26T15:56:50.697Z,15.54
2022-08-26T15:59:29.897Z,15.54
2022-08-26T16:01:59.271Z,14.87
2022-08-26T16:04:27.818Z,15.12
2022-08-26T16:07:05.840Z,15.17
2022-08-26T16:09:34.427Z,15.48
2022-08-26T16:12:05.370Z,15.91
2022-08-26T16:14:33.643Z,15.96
2022-08-26T16:17:01.709Z,15.89
2022-08-26T16:19:38.880Z,16.02
2022-08-26T16:22:18.931Z,15.79
2022-08-26T16:24:48.462Z,16.09
2022-08-26T16:27:17.931Z,16.19
2022-08-26T16:29:53.723Z,16.62
2022-08-26T16:32:22.423Z,16.88
2022-08-26T16:37:35.478Z,17.33
2022-08-26T16:40:07.042Z,17.80
2022-08-26T16:42:35.351Z,17.84
2022-08-26T16:45:04.578Z,18.05
2022-08-26T16:47:33.569Z,18.61
2022-08-26T16:50:02.240Z,18.70
2022-08-26T16:52:33.163Z,19.18
2022-08-26T16:55:01.357Z,19.68
2022-08-26T16:57:29.471Z,19.91
2022-08-26T16:59:57.757Z,20.46
2022-08-26T17:02:25.853Z,20.88
2022-08-26T17:04:54.905Z,21.06
2022-08-26T17:10:13.161Z,21.81
2022-08-26T17:12:41.323Z,22.38
2022-08-26T17:15:19.048Z,22.98
2022-08-26T17:17:47.272Z,23.30
2022-08-26T17:20:16.394Z,23.97
2022-08-26T17:22:47.361Z,24.49
2022-08-26T17:25:25.933Z,25.06
2022-08-26T17:30:26.059Z,25.77
2022-08-26T17:32:55.367Z,26.40
2022-08-26T17:35:24.180Z,26.96
2022-08-26T17:37:52.898Z,27.19
2022-08-26T17:40:22.370Z,27.87
2022-08-26T17:42:52.771Z,28.03
2022-08-26T17:45:21.314Z,28.72
2022-08-26T17:47:50.857Z,29.67
2022-08-26T17:50:19.500Z,30.47
2022-08-26T17:52:52.985Z,30.03
2022-08-26T17:55:22.051Z,30.23
2022-08-26T17:57:53.174Z,30.45
2022-08-26T18:00:22.787Z,30.93
2022-08-26T18:02:50.928Z,31.77
2022-08-26T18:05:19.694Z,31.75
2022-08-26T18:07:49.081Z,31.46
2022-08-26T18:10:21.138Z,31.82
2022-08-26T18:12:49.260Z,32.56
2022-08-26T18:15:17.606Z,33.25
2022-08-26T18:17:45.987Z,34.04
2022-08-26T18:20:15.981Z,34.51
2022-08-26T18:22:46.729Z,34.89
2022-08-26T18:25:15.534Z,34.77
2022-08-26T18:27:43.856Z,35.06
2022-08-26T18:30:16.727Z,34.84
2022-08-26T18:33:06.930Z,35.46
2022-08-26T18:35:42.918Z,35.24
2022-08-26T18:38:12.007Z,36.94
2022-08-26T18:41:05.727Z,36.59
2022-08-26T18:43:35.531Z,37.87
2022-08-26T18:46:06.135Z,39.07
2022-08-26T18:48:35.670Z,40.00
2022-08-26T18:51:20.004Z,39.64
2022-08-26T18:53:53.037Z,38.39
2022-08-26T18:56:26.759Z,38.10
2022-08-26T18:59:04.057Z,38.77
2022-08-26T19:01:40.936Z,39.56
2022-08-26T19:04:23.475Z,41.42
2022-08-26T19:06:54.855Z,42.78
2022-08-26T19:09:36.044Z,44.29
2022-08-26T19:12:07.167Z,45.94
2022-08-26T19:14:37.477Z,48.03
2022-08-26T19:17:22.623Z,50.29
2022-08-26T19:19:54.199Z,50.57
2022-08-26T19:22:22.675Z,51.57
2022-08-26T19:24:56.492Z,52.98
2022-08-26T19:27:26.098Z,54.16
2022-08-26T19:29:57.991Z,53.67
2022-08-26T19:32:28.219Z,57.08
2022-08-26T19:35:18.600Z,54.06
2022-08-26T19:37:47.032Z,55.48
2022-08-26T19:40:18.156Z,60.06
2022-08-26T19:42:52.663Z,60.29
2022-08-26T19:45:31.314Z,61.77
2022-08-26T19:48:00.801Z,63.78
2022-08-26T19:50:34.281Z,64.69
2022-08-26T19:53:12.138Z,61.42
2022-08-26T19:58:27.393Z,65.16
2022-08-26T20:01:02.119Z,67.90
2022-08-26T20:03:30.377Z,68.79
2022-08-26T20:06:05.523Z,70.02
2022-08-26T20:08:43.592Z,72.10
2022-08-26T20:11:15.776Z,73.32
2022-08-26T20:13:46.692Z,73.34
2022-08-26T20:16:17.527Z,73.45
2022-08-26T20:19:08.065Z,75.64
2022-08-26T20:21:45.665Z,75.88
2022-08-26T20:24:17.987Z,76.68
2022-08-26T20:29:35.845Z,74.21
2022-08-26T20:32:07.974Z,73.28
2022-08-26T20:34:37.394Z,71.15
2022-08-26T20:37:06.459Z,74.79
2022-08-26T20:39:37.201Z,75.16
2022-08-26T20:42:07.008Z,76.30
2022-08-26T20:44:54.755Z,75.21
2022-08-26T20:47:23.755Z,75.65
2022-08-26T20:49:53.073Z,79.10
2022-08-26T20:52:21.807Z,79.49
2022-08-26T20:54:50.984Z,80.00
2022-08-26T20:57:23.158Z,80.06
2022-08-26T20:59:52.812Z,78.44
2022-08-26T21:02:26.408Z,76.90
2022-08-26T21:04:58.103Z,76.47
2022-08-26T21:07:26.955Z,75.67
2022-08-26T21:09:59.989Z,74.50
2022-08-26T21:12:28.677Z,74.02
2022-08-26T21:15:01.173Z,74.46
2022-08-26T21:17:42.759Z,77.60
2022-08-26T21:20:16.340Z,77.02
2022-08-26T21:22:48.913Z,76.46
2022-08-26T21:25:27.077Z,76.85
2022-08-26T21:27:56.543Z,77.78
2022-08-26T21:30:25.005Z,79.50
2022-08-26T21:32:55.195Z,81.63
2022-08-26T21:35:24.268Z,81.77
2022-08-26T21:37:55.610Z,81.59
2022-08-26T21:40:32.492Z,80.59
2022-08-26T21:43:27.770Z,78.94
2022-08-26T21:46:28.287Z,78.99
2022-08-26T21:49:00.734Z,78.79
2022-08-26T21:51:35.094Z,78.08
2022-08-26T21:54:10.524Z,78.41
2022-08-26T21:56:47.417Z,78.46
2022-08-26T21:59:17.334Z,79.13
2022-08-26T22:02:13.728Z,77.59
2022-08-26T22:04:48.548Z,76.16
2022-08-26T22:07:25.348Z,78.19
2022-08-26T22:09:55.012Z,79.64
2022-08-26T22:12:23.432Z,80.09
2022-08-26T22:14:51.627Z,79.83
2022-08-26T22:17:21.466Z,80.21
2022-08-26T22:20:16.613Z,80.56
2022-08-26T22:22:45.956Z,81.52
2022-08-26T22:25:16.911Z,81.01
2022-08-26T22:27:50.198Z,80.27
2022-08-26T22:30:20.991Z,81.63
2022-08-26T22:32:49.931Z,82.68
2022-08-26T22:35:28.124Z,84.57
2022-08-26T22:38:09.126Z,85.72
2022-08-26T22:40:47.364Z,85.63
2022-08-26T22:43:17.745Z,85.06
2022-08-26T22:45:51.137Z,86.33
2022-08-26T22:48:20.957Z,85.87
2022-08-26T22:50:51.960Z,85.33
2022-08-26T22:53:30.280Z,85.79
2022-08-26T22:56:13.746Z,86.99
2022-08-26T22:58:44.996Z,88.03
2022-08-26T23:01:17.442Z,88.56
2022-08-26T23:03:47.478Z,87.76
2022-08-26T23:06:20.038Z,87.27
2022-08-26T23:08:48.759Z,87.13
2022-08-26T23:11:17.585Z,88.13
2022-08-26T23:13:46.817Z,85.68
2022-08-26T23:16:16.130Z,85.00
2022-08-26T23:18:44.313Z,84.62
2022-08-26T23:21:12.771Z,85.26
2022-08-26T23:23:45.095Z,85.77
2022-08-26T23:26:17.671Z,88.57
2022-08-26T23:28:47.374Z,91.36
2022-08-26T23:31:29.660Z,93.02
2022-08-26T23:34:17.720Z,94.76
2022-08-26T23:36:46.334Z,94.64
2022-08-26T23:39:15.694Z,95.26
2022-08-26T23:41:43.980Z,96.19
2022-08-26T23:44:12.977Z,96.82
2022-08-26T23:46:43.311Z,97.04
2022-08-26T23:49:11.856Z,98.47
2022-08-26T23:51:58.747Z,97.81
2022-08-26T23:57:12.919Z,97.87
2022-08-26T23:59:42.672Z,97.01
